Hlavní strana
METAR-TAF:

METAR-TAF

Letiště :

Shelbyville Municipal Airport

Shelbyville, Indiana, Spojené státy americké

zeměpisná šířka: 39-35-08N, zeměpisná délka: 085-48-00W, výška: 245 m

Aktuální stav počasí

Zpráva byla vytvořena před 1 hodinou a 5 minutami, v 23:53 UTC
Severní vítr 13 kt s nárazy do 27 kt
Teplota 8°C
Vlhkost vzduchu 76%
Tlak 1002 hPa
Viditelnost: 16.1 km
Zataženo ve výšce 1700 ft

METAR: KGEZ 192353Z AUTO 01013G27KT 10SM OVC017 08/04 A2959 RMK AO2 PK WND 36029/2254 SLP021 60000 T00830044 10083 20072 58001

Čas: 20:58 (00:58 UTC)


TAF: chybějící

Stav a předpovědi počasí z více než 4 000 letišť (zprávy METAR a TAF).

Červené a žluté tečky na mapě představují dostupné meteorologické stanice.

Když kurzor umístíte na tečku, zobrazí se název stanice.

Pak kliknutím zobrazíte stav a předpověď počasí.

Chcete-li změnit mapu, kliknutím na zelené tlačítko se znaménkem +mapu přiblížíte, kliknutím na zelené tlačítko se znaménkem – mapu oddálíte a kliknutím na zelené šipky přejdete na sousední mapy.


METAR-TAF: